Time;durP1;ratioP1;P1;durP2;ratioP2;P2;SDS_P1;SDS_P2;PMS_P1;PMS_P2;Temp;Humidity;BMP_temperature;BMP_pressure;BME280_temperature;BME280_humidity;BME280_pressure;Samples;Min_cycle;Max_cycle;Signal;HPM_P1;HPM_P2
2023/07/30 00:02:30;;;;;;;;;;;;;;;17.98;100.00;99466.16;5055062;28;806;-59
2023/07/30 00:04:57;;;;;;;;;;;;;;;17.96;100.00;99471.44;5054961;28;1917;-59
2023/07/30 00:07:24;;;;;;;;;;;;;;;17.97;100.00;99467.44;5055050;28;820;-59
2023/07/30 00:09:51;;;;;;;;;;;;;;;17.95;100.00;99467.09;5054961;28;854;-59
2023/07/30 00:15:19;;;;;;;;;;;;;;;17.80;100.00;99468.91;5054866;28;672;-59
2023/07/30 00:17:46;;;;;;;;;;;;;;;17.75;100.00;99461.88;5054838;28;811;-59
2023/07/30 00:20:14;;;;;;;;;;;;;;;17.73;100.00;99467.13;5054773;28;831;-60
2023/07/30 00:25:43;;;;;;;;;;;;;;;17.64;100.00;99461.53;5054700;28;1894;-59
2023/07/30 00:31:12;;;;;;;;;;;;;;;17.33;100.00;99468.66;5054536;28;614;-59
2023/07/30 00:33:39;;;;;;;;;;;;;;;17.23;100.00;99469.84;5054502;28;857;-59
2023/07/30 00:36:06;;;;;;;;;;;;;;;17.14;100.00;99461.41;5053514;28;798;-59
2023/07/30 00:38:33;;;;;;;;;;;;;;;17.08;100.00;99463.25;5054485;28;849;-59
2023/07/30 00:40:59;;;;;;;;;;;;;;;16.96;100.00;99470.44;5054400;28;860;-59
2023/07/30 00:43:26;;;;;;;;;;;;;;;16.90;100.00;99461.13;5054558;28;865;-59
2023/07/30 00:48:56;;;;;;;;;;;;;;;16.77;100.00;99466.72;5054004;28;1345;-58
2023/07/30 00:57:29;;;;;;;;;;;;;;;16.48;100.00;99464.91;5054117;28;629;-59
2023/07/30 00:59:57;;;;;;;;;;;;;;;16.42;100.00;99466.72;5054016;28;861;-59
2023/07/30 01:02:24;;;;;;;;;;;;;;;16.44;100.00;99461.47;5053944;28;826;-59
2023/07/30 01:04:49;;;;;;;;;;;;;;;16.54;100.00;99456.75;5053835;28;1913;-59
2023/07/30 01:07:16;;;;;;;;;;;;;;;16.65;100.00;99461.97;5053957;28;874;-59
2023/07/30 01:09:43;;;;;;;;;;;;;;;16.72;100.00;99461.72;5053863;28;802;-59
2023/07/30 01:12:11;;;;;;;;;;;;;;;16.70;100.00;99453.00;5053875;28;795;-59
2023/07/30 01:14:39;;;;;;;;;;;;;;;16.73;100.00;99452.88;5053662;28;893;-59
2023/07/30 01:17:06;;;;;;;;;;;;;;;16.84;100.00;99457.34;5053778;28;842;-59
2023/07/30 01:19:33;;;;;;;;;;;;;;;16.89;100.00;99457.53;5053646;28;870;-59
2023/07/30 01:21:59;;;;;;;;;;;;;;;16.91;100.00;99457.06;5053612;28;811;-59
2023/07/30 01:24:26;;;;;;;;;;;;;;;16.92;100.00;99448.25;5053606;28;963;-59
2023/07/30 01:26:56;;;;;;;;;;;;;;;16.94;100.00;99450.56;5053459;28;1952;-59
2023/07/30 01:32:27;;;;;;;;;;;;;;;16.64;100.00;99452.03;5053323;28;676;-59
2023/07/30 01:37:57;;;;;;;;;;;;;;;16.30;100.00;99450.78;5053359;28;668;-59
2023/07/30 01:40:24;;;;;;;;;;;;;;;16.17;100.00;99456.41;5053231;28;798;-59
2023/07/30 01:42:51;;;;;;;;;;;;;;;16.12;100.00;99449.38;5053290;28;824;-59
2023/07/30 01:45:18;;;;;;;;;;;;;;;16.17;100.00;99456.41;5052999;28;1886;-59
2023/07/30 01:50:48;;;;;;;;;;;;;;;16.52;100.00;99446.06;5053097;28;676;-59
2023/07/30 01:53:15;;;;;;;;;;;;;;;16.54;100.00;99449.16;5053290;28;1272;-59
2023/07/30 01:55:46;;;;;;;;;;;;;;;16.53;100.00;99444.81;5053022;28;1204;-59
2023/07/30 02:04:18;;;;;;;;;;;;;;;16.84;100.00;99443.38;5052801;28;826;-59
2023/07/30 02:06:45;;;;;;;;;;;;;;;16.66;100.00;99446.78;5052699;28;1918;-59
2023/07/30 02:09:12;;;;;;;;;;;;;;;16.58;100.00;99437.91;5034718;28;1323;-59
2023/07/30 02:11:38;;;;;;;;;;;;;;;16.70;100.00;99445.41;5052751;28;865;-59
2023/07/30 02:17:08;;;;;;;;;;;;;;;16.69;100.00;99449.44;5052615;28;850;-59
2023/07/30 02:19:35;;;;;;;;;;;;;;;16.59;100.00;99445.03;5052511;28;845;-59
2023/07/30 02:22:02;;;;;;;;;;;;;;;16.46;100.00;99444.28;5052455;28;880;-59
2023/07/30 02:30:35;;;;;;;;;;;;;;;16.25;100.00;99452.16;5052352;28;657;-59
2023/07/30 02:33:01;;;;;;;;;;;;;;;16.22;100.00;99447.47;5052256;28;826;-59
2023/07/30 02:35:28;;;;;;;;;;;;;;;16.18;100.00;99451.63;5052241;28;880;-59
2023/07/30 02:40:58;;;;;;;;;;;;;;;16.22;100.00;99455.84;5052146;28;818;-59
2023/07/30 02:43:25;;;;;;;;;;;;;;;16.14;100.00;99454.53;5052122;28;884;-59
2023/07/30 02:48:55;;;;;;;;;;;;;;;15.85;100.00;99463.03;5052004;28;1355;-59
2023/07/30 02:51:22;;;;;;;;;;;;;;;15.85;100.00;99458.25;5052176;28;818;-59
2023/07/30 02:53:52;;;;;;;;;;;;;;;15.99;100.00;99459.00;5052155;28;890;-59
2023/07/30 02:56:19;;;;;;;;;;;;;;;16.05;100.00;99455.22;5051965;28;827;-60
2023/07/30 02:58:46;;;;;;;;;;;;;;;16.15;100.00;99469.25;5051367;28;874;-59
2023/07/30 03:01:12;;;;;;;;;;;;;;;16.20;100.00;99463.13;5052221;28;869;-59
2023/07/30 03:03:39;;;;;;;;;;;;;;;16.22;100.00;99455.09;5051891;28;831;-61
2023/07/30 03:06:06;;;;;;;;;;;;;;;16.15;100.00;99458.84;5051739;28;1918;-61
2023/07/30 03:08:35;;;;;;;;;;;;;;;16.05;100.00;99460.00;5051826;28;854;-60
2023/07/30 03:11:02;;;;;;;;;;;;;;;16.08;100.00;99459.09;5051859;28;834;-59
2023/07/30 03:13:29;;;;;;;;;;;;;;;16.09;100.00;99460.69;5051961;28;907;-59
2023/07/30 03:15:56;;;;;;;;;;;;;;;16.06;100.00;99467.91;5051830;28;834;-60
2023/07/30 03:18:23;;;;;;;;;;;;;;;16.07;100.00;99472.28;5051700;28;897;-59
2023/07/30 03:20:50;;;;;;;;;;;;;;;16.10;100.00;99463.00;5051764;28;886;-59
2023/07/30 03:23:17;;;;;;;;;;;;;;;16.16;100.00;99460.44;5051599;28;930;-59
2023/07/30 03:25:43;;;;;;;;;;;;;;;16.22;100.00;99477.38;5051845;28;1977;-59
2023/07/30 03:28:10;;;;;;;;;;;;;;;16.28;100.00;99467.19;5051640;28;807;-59
2023/07/30 03:30:37;;;;;;;;;;;;;;;16.33;100.00;99467.41;5051573;28;934;-59
2023/07/30 03:33:03;;;;;;;;;;;;;;;16.35;100.00;99466.19;5051589;28;861;-59
2023/07/30 03:35:30;;;;;;;;;;;;;;;16.34;100.00;99465.41;5051666;28;795;-59
2023/07/30 03:41:00;;;;;;;;;;;;;;;16.36;100.00;99462.94;5051515;28;822;-59
2023/07/30 03:43:26;;;;;;;;;;;;;;;16.42;100.00;99449.97;5051441;28;881;-59
2023/07/30 03:45:53;;;;;;;;;;;;;;;16.53;100.00;99453.19;5051404;28;1947;-59
2023/07/30 03:48:20;;;;;;;;;;;;;;;16.66;100.00;99460.72;5051271;28;1250;-59
2023/07/30 03:50:47;;;;;;;;;;;;;;;16.81;100.00;99458.25;5051345;28;878;-59
2023/07/30 03:53:14;;;;;;;;;;;;;;;16.96;100.00;99456.47;5051385;28;851;-59
2023/07/30 03:55:40;;;;;;;;;;;;;;;17.10;100.00;99461.53;5051342;28;869;-59
2023/07/30 03:58:07;;;;;;;;;;;;;;;17.24;100.00;99462.25;5051178;28;791;-59
2023/07/30 04:00:34;;;;;;;;;;;;;;;17.36;100.00;99458.59;5051251;28;831;-59
2023/07/30 04:03:00;;;;;;;;;;;;;;;17.51;100.00;99465.19;5051185;28;922;-59
2023/07/30 04:05:28;;;;;;;;;;;;;;;17.64;100.00;99462.28;5051173;28;1938;-59
2023/07/30 04:07:54;;;;;;;;;;;;;;;17.76;100.00;99461.41;5051119;28;822;-59
2023/07/30 04:10:20;;;;;;;;;;;;;;;17.88;100.00;99465.38;5051746;28;827;-59
2023/07/30 04:12:47;;;;;;;;;;;;;;;18.01;100.00;99458.88;5054834;28;855;-59
2023/07/30 04:15:14;;;;;;;;;;;;;;;18.13;100.00;99458.75;5055039;28;791;-59
2023/07/30 04:20:43;;;;;;;;;;;;;;;18.42;100.00;99473.59;5054848;28;865;-59
2023/07/30 04:23:10;;;;;;;;;;;;;;;18.52;100.00;99466.72;5054758;28;843;-59
2023/07/30 04:25:36;;;;;;;;;;;;;;;18.65;100.00;99464.59;5054640;28;1890;-59
2023/07/30 04:28:03;;;;;;;;;;;;;;;18.78;100.00;99475.66;5054664;28;838;-59
2023/07/30 04:30:29;;;;;;;;;;;;;;;18.91;100.00;99476.25;5054627;28;806;-59
2023/07/30 04:32:56;;;;;;;;;;;;;;;19.06;100.00;99479.19;5054681;28;830;-59
2023/07/30 04:35:23;;;;;;;;;;;;;;;19.17;100.00;99476.69;5054658;28;830;-59
2023/07/30 04:37:48;;;;;;;;;;;;;;;19.23;100.00;99476.84;5054460;28;915;-59
2023/07/30 04:43:18;;;;;;;;;;;;;;;19.52;100.00;99483.91;5054419;28;611;-59
2023/07/30 04:45:45;;;;;;;;;;;;;;;19.69;100.00;99487.13;5054382;28;1886;-58
2023/07/30 04:48:11;;;;;;;;;;;;;;;19.91;100.00;99487.69;5054147;28;1398;-59
2023/07/30 04:50:40;;;;;;;;;;;;;;;20.30;100.00;99484.22;5054276;28;885;-58
2023/07/30 04:56:08;;;;;;;;;;;;;;;21.47;94.02;99487.78;5054173;28;823;-58
2023/07/30 04:58:35;;;;;;;;;;;;;;;21.81;91.39;99493.97;5053952;28;811;-59
2023/07/30 05:01:02;;;;;;;;;;;;;;;21.88;90.31;99492.78;5054086;28;893;-58
2023/07/30 05:06:32;;;;;;;;;;;;;;;22.22;88.27;99489.22;5053937;28;2004;-58
2023/07/30 05:08:59;;;;;;;;;;;;;;;22.20;88.30;99497.34;5053800;28;835;-58
2023/07/30 05:17:32;;;;;;;;;;;;;;;22.24;89.30;99511.25;5053684;28;802;-58
2023/07/30 05:19:58;;;;;;;;;;;;;;;22.30;89.46;99509.28;5053635;28;853;-58
2023/07/30 05:22:25;;;;;;;;;;;;;;;22.49;89.14;99509.81;5053238;28;846;-58
2023/07/30 05:24:52;;;;;;;;;;;;;;;22.71;87.98;99512.13;5053583;28;811;-58
2023/07/30 05:27:19;;;;;;;;;;;;;;;22.98;86.25;99508.09;5053340;28;1882;-58
2023/07/30 05:32:49;;;;;;;;;;;;;;;23.58;82.02;99508.44;5053573;28;649;-58
2023/07/30 05:35:18;;;;;;;;;;;;;;;23.69;81.25;99509.81;5053331;28;826;-58
2023/07/30 05:37:45;;;;;;;;;;;;;;;23.73;81.78;99507.53;5053419;28;806;-58
2023/07/30 05:40:12;;;;;;;;;;;;;;;23.83;81.19;99506.88;5053625;28;1024;-58
2023/07/30 05:42:39;;;;;;;;;;;;;;;23.91;81.37;99510.00;5053171;28;811;-58
2023/07/30 05:45:06;;;;;;;;;;;;;;;24.00;80.24;99504.19;5053072;28;1956;-58
2023/07/30 05:47:33;;;;;;;;;;;;;;;24.20;78.93;99494.03;5052935;28;1367;-58
2023/07/30 05:50:00;;;;;;;;;;;;;;;24.38;76.39;99504.13;5053182;28;846;-58
2023/07/30 05:52:26;;;;;;;;;;;;;;;24.68;74.07;99507.38;5053036;28;826;-58
2023/07/30 05:54:52;;;;;;;;;;;;;;;24.96;71.40;99512.34;5035098;28;1314;-58
2023/07/30 05:57:19;;;;;;;;;;;;;;;25.40;68.62;99506.03;5052950;28;890;-58
2023/07/30 05:59:46;;;;;;;;;;;;;;;26.30;63.38;99505.22;5052942;28;842;-55
2023/07/30 06:02:13;;;;;;;;;;;;;;;27.34;59.04;99502.97;5052837;28;885;-58
2023/07/30 06:04:40;;;;;;;;;;;;;;;27.94;55.87;99513.59;5053183;28;806;-57
2023/07/30 06:07:07;;;;;;;;;;;;;;;28.15;54.10;99507.47;5052634;28;1906;-57
2023/07/30 06:09:34;;;;;;;;;;;;;;;28.26;52.64;99505.25;5052804;28;806;-56
2023/07/30 06:12:01;;;;;;;;;;;;;;;28.35;51.93;99506.97;5052819;28;904;-56
2023/07/30 06:14:28;;;;;;;;;;;;;;;28.83;49.66;99499.69;5052716;28;819;-57
2023/07/30 06:16:54;;;;;;;;;;;;;;;29.49;47.38;99493.59;5052683;28;817;-57
2023/07/30 06:19:22;;;;;;;;;;;;;;;30.15;45.40;99495.06;5052606;28;826;-57
2023/07/30 06:21:48;;;;;;;;;;;;;;;30.59;41.66;99498.34;5052672;28;895;-57
2023/07/30 06:24:15;;;;;;;;;;;;;;;30.85;39.10;99496.78;5052469;28;910;-57
2023/07/30 06:26:42;;;;;;;;;;;;;;;31.28;37.13;99492.69;5052347;28;1881;-57
2023/07/30 06:29:09;;;;;;;;;;;;;;;31.92;36.31;99503.63;5052415;28;841;-57
2023/07/30 06:31:36;;;;;;;;;;;;;;;32.61;33.96;99494.00;5052454;28;862;-57
2023/07/30 06:34:03;;;;;;;;;;;;;;;33.04;33.45;99492.44;5051667;28;826;-57
2023/07/30 06:36:30;;;;;;;;;;;;;;;33.38;32.24;99483.56;5052363;28;821;-55
2023/07/30 06:38:57;;;;;;;;;;;;;;;33.73;30.91;99473.28;5052287;28;834;-56
2023/07/30 06:41:24;;;;;;;;;;;;;;;34.02;29.60;99469.47;5052237;28;842;-57
2023/07/30 06:43:51;;;;;;;;;;;;;;;34.61;28.07;99477.75;5052216;28;798;-57
2023/07/30 06:46:18;;;;;;;;;;;;;;;35.15;26.24;99474.66;5052196;28;1940;-55
2023/07/30 06:51:48;;;;;;;;;;;;;;;35.62;25.74;99480.84;5052132;28;745;-57
2023/07/30 06:54:14;;;;;;;;;;;;;;;35.77;25.29;99472.88;5052110;28;1306;-57
2023/07/30 06:56:41;;;;;;;;;;;;;;;35.85;25.75;99469.94;5051887;28;861;-57
2023/07/30 06:59:08;;;;;;;;;;;;;;;35.97;25.72;99473.81;5052226;28;835;-57
2023/07/30 07:01:35;;;;;;;;;;;;;;;36.27;26.09;99465.50;5052166;28;886;-57
2023/07/30 07:04:02;;;;;;;;;;;;;;;36.23;26.77;99462.28;5051939;28;858;-57
2023/07/30 07:06:29;;;;;;;;;;;;;;;36.59;26.56;99467.41;5051762;28;1969;-57
2023/07/30 07:08:56;;;;;;;;;;;;;;;36.61;27.42;99458.97;5051849;28;833;-58
2023/07/30 07:11:23;;;;;;;;;;;;;;;36.50;26.84;99460.25;5052010;28;834;-57
2023/07/30 07:13:50;;;;;;;;;;;;;;;36.50;27.17;99456.59;5051756;28;851;-58
2023/07/30 07:19:19;;;;;;;;;;;;;;;37.55;26.04;99457.84;5051746;28;671;-58
2023/07/30 07:21:46;;;;;;;;;;;;;;;38.06;26.18;99463.16;5051739;28;852;-57
2023/07/30 07:24:14;;;;;;;;;;;;;;;38.29;25.39;99468.50;5051748;28;869;-58
2023/07/30 07:26:40;;;;;;;;;;;;;;;38.38;25.84;99456.19;5051647;28;1952;-58
2023/07/30 07:29:08;;;;;;;;;;;;;;;38.13;25.52;99465.16;5051782;28;881;-56
2023/07/30 07:34:37;;;;;;;;;;;;;;;37.20;27.03;99460.13;5051709;28;814;-57
2023/07/30 07:40:09;;;;;;;;;;;;;;;37.36;26.52;99461.44;5051846;28;668;-57
2023/07/30 07:42:37;;;;;;;;;;;;;;;36.93;27.37;99463.75;5051539;28;823;-57
2023/07/30 07:48:07;;;;;;;;;;;;;;;36.89;27.79;99460.53;5055241;28;1443;-57
2023/07/30 07:50:34;;;;;;;;;;;;;;;37.31;27.64;99450.16;5055423;28;909;-57
2023/07/30 07:53:00;;;;;;;;;;;;;;;37.13;27.81;99450.25;5037405;28;1493;-57
2023/07/30 07:55:26;;;;;;;;;;;;;;;37.13;26.98;99458.13;5055204;28;902;-57
2023/07/30 07:57:54;;;;;;;;;;;;;;;36.85;27.58;99453.69;5055340;28;834;-57
2023/07/30 08:03:24;;;;;;;;;;;;;;;37.02;27.92;99445.00;5055269;28;633;-58
2023/07/30 08:05:51;;;;;;;;;;;;;;;37.07;27.76;99443.22;5054925;28;1976;-57
2023/07/30 08:08:18;;;;;;;;;;;;;;;36.70;27.64;99431.63;5055173;28;914;-56
2023/07/30 08:10:46;;;;;;;;;;;;;;;37.01;27.72;99434.84;5055112;28;833;-57
2023/07/30 08:13:12;;;;;;;;;;;;;;;37.39;27.46;99439.28;5055111;28;882;-58
2023/07/30 08:15:39;;;;;;;;;;;;;;;37.37;27.26;99439.13;5054989;28;845;-57
2023/07/30 08:18:06;;;;;;;;;;;;;;;37.19;26.60;99432.66;5054937;28;834;-57
2023/07/30 08:23:35;;;;;;;;;;;;;;;37.39;26.10;99437.16;5054731;28;823;-58
2023/07/30 08:26:02;;;;;;;;;;;;;;;37.82;25.74;99439.72;5054760;28;1949;-57
2023/07/30 08:31:32;;;;;;;;;;;;;;;37.37;26.22;99430.47;5054691;28;654;-56
2023/07/30 08:33:59;;;;;;;;;;;;;;;37.25;26.57;99432.41;5054553;28;819;-57
2023/07/30 08:36:26;;;;;;;;;;;;;;;37.34;26.50;99425.91;5054693;28;802;-58
2023/07/30 08:38:53;;;;;;;;;;;;;;;37.15;26.38;99426.59;5054659;28;913;-58
2023/07/30 08:41:18;;;;;;;;;;;;;;;36.83;27.11;99418.97;5054451;28;815;-58
2023/07/30 08:43:48;;;;;;;;;;;;;;;36.88;26.04;99417.94;5054524;28;858;-55
2023/07/30 08:46:16;;;;;;;;;;;;;;;36.76;26.01;99421.34;5054591;28;1949;-57
2023/07/30 08:54:49;;;;;;;;;;;;;;;36.85;26.42;99414.16;5054146;28;810;-56
2023/07/30 09:00:20;;;;;;;;;;;;;;;36.60;26.60;99411.41;5054117;28;861;-59
2023/07/30 09:02:48;;;;;;;;;;;;;;;36.50;26.59;99407.69;5054021;28;878;-58
2023/07/30 09:05:16;;;;;;;;;;;;;;;36.42;26.43;99402.03;5054026;28;1977;-58
2023/07/30 09:07:42;;;;;;;;;;;;;;;36.26;26.86;99392.81;5054002;28;878;-57
2023/07/30 09:10:09;;;;;;;;;;;;;;;36.13;26.33;99398.94;5053902;28;811;-57
2023/07/30 09:47:35;;;;;;;;;;;;;;;35.34;27.75;99367.88;5712177;22;1819;-71
2023/07/30 09:50:02;;;;;;;;;;;;;;;35.05;28.53;99371.13;5073313;28;888;-69
2023/07/30 09:55:32;;;;;;;;;;;;;;;35.14;28.07;99359.03;5073191;28;1073;-73
2023/07/30 09:57:58;;;;;;;;;;;;;;;35.17;28.68;99357.09;5055492;28;1287;-73
2023/07/30 10:00:27;;;;;;;;;;;;;;;35.19;28.60;99357.25;5070503;28;1243;-72
2023/07/30 10:06:02;;;;;;;;;;;;;;;35.49;28.36;99343.97;5072831;28;1988;-74
2023/07/30 10:08:31;;;;;;;;;;;;;;;35.51;28.45;99332.66;5073091;28;1290;-69
2023/07/30 10:10:59;;;;;;;;;;;;;;;35.42;28.36;99336.97;5072981;28;854;-69
2023/07/30 10:13:26;;;;;;;;;;;;;;;35.33;28.53;99334.72;5073028;28;838;-75
2023/07/30 10:15:52;;;;;;;;;;;;;;;35.33;28.25;99323.25;5072759;28;843;-73
2023/07/30 10:21:31;;;;;;;;;;;;;;;35.41;28.27;99335.41;5072741;28;672;-71
2023/07/30 10:27:11;;;;;;;;;;;;;;;35.31;28.58;99325.94;5072606;28;1889;-74
2023/07/30 10:29:41;;;;;;;;;;;;;;;35.28;28.46;99327.88;5072715;28;890;-77
2023/07/30 10:32:08;;;;;;;;;;;;;;;35.25;28.48;99331.16;5072707;28;845;-72
2023/07/30 10:34:45;;;;;;;;;;;;;;;35.28;28.33;99318.50;5072463;28;864;-74
2023/07/30 10:37:17;;;;;;;;;;;;;;;35.13;28.89;99317.28;5072868;28;865;-73
2023/07/30 10:39:47;;;;;;;;;;;;;;;35.18;29.03;99318.38;5072551;28;874;-71
2023/07/30 10:42:14;;;;;;;;;;;;;;;35.16;28.59;99315.34;5072326;28;949;-71
2023/07/30 10:47:44;;;;;;;;;;;;;;;35.24;28.85;99318.16;5072339;28;1183;-74
2023/07/30 10:50:13;;;;;;;;;;;;;;;35.51;28.11;99312.53;5072355;28;818;-72
2023/07/30 10:52:39;;;;;;;;;;;;;;;35.66;27.79;99312.41;5072336;28;873;-73
2023/07/30 10:55:06;;;;;;;;;;;;;;;35.48;27.53;99320.22;5072290;28;810;-70
2023/07/30 10:57:33;;;;;;;;;;;;;;;35.41;28.12;99303.81;5072159;28;880;-73
2023/07/30 11:00:00;;;;;;;;;;;;;;;35.38;27.36;99310.75;5072275;28;1006;-74
2023/07/30 11:02:28;;;;;;;;;;;;;;;35.11;27.49;99296.97;5072530;28;806;-70
2023/07/30 11:04:55;;;;;;;;;;;;;;;35.42;27.08;99305.34;5071989;28;997;-69
2023/07/30 11:07:24;;;;;;;;;;;;;;;35.78;26.93;99295.41;5072299;28;1906;-76
2023/07/30 11:12:54;;;;;;;;;;;;;;;36.77;25.74;99287.59;5072300;28;621;-75
2023/07/30 11:15:21;;;;;;;;;;;;;;;36.71;25.55;99292.84;5072061;28;834;-73
2023/07/30 11:17:47;;;;;;;;;;;;;;;36.47;26.22;99294.53;5072310;28;897;-72
2023/07/30 11:20:27;;;;;;;;;;;;;;;36.34;25.88;99289.19;5072477;28;755;-74
2023/07/30 11:22:54;;;;;;;;;;;;;;;36.46;26.11;99284.38;5071867;28;872;-73
2023/07/30 11:25:21;;;;;;;;;;;;;;;36.76;26.27;99291.81;5071880;28;1949;-70
2023/07/30 11:27:48;;;;;;;;;;;;;;;37.08;25.19;99278.44;5071960;28;822;-76
2023/07/30 11:30:15;;;;;;;;;;;;;;;36.84;25.47;99277.31;5071875;28;864;-68
2023/07/30 11:32:44;;;;;;;;;;;;;;;36.79;25.82;99279.09;5071794;28;846;-69
2023/07/30 11:35:15;;;;;;;;;;;;;;;36.81;25.70;99272.75;5071781;28;798;-73
2023/07/30 11:37:43;;;;;;;;;;;;;;;36.62;25.63;99273.44;5071611;28;873;-70
2023/07/30 11:43:13;;;;;;;;;;;;;;;36.98;25.32;99261.13;5071774;28;816;-77
2023/07/30 11:45:40;;;;;;;;;;;;;;;37.25;25.05;99266.06;5071417;28;1949;-73
2023/07/30 11:48:09;;;;;;;;;;;;;;;37.57;25.67;99261.25;5071648;28;1258;-75
2023/07/30 11:50:50;;;;;;;;;;;;;;;37.90;25.29;99255.78;5071757;28;850;-76
2023/07/30 11:56:21;;;;;;;;;;;;;;;37.72;24.99;99249.41;5071657;28;605;-70
2023/07/30 12:01:52;;;;;;;;;;;;;;;37.93;24.96;99254.56;5071523;28;644;-74
2023/07/30 12:04:18;;;;;;;;;;;;;;;37.73;24.84;99250.94;5071515;28;806;-72
2023/07/30 12:09:48;;;;;;;;;;;;;;;38.19;25.33;99235.56;5071513;28;903;-71
2023/07/30 12:12:15;;;;;;;;;;;;;;;38.10;25.38;99232.72;5071517;28;839;-69
2023/07/30 12:14:52;;;;;;;;;;;;;;;37.65;25.64;99238.81;5071701;28;809;-72
2023/07/30 12:17:20;;;;;;;;;;;;;;;37.65;25.90;99238.06;5071526;28;861;-69
2023/07/30 12:19:47;;;;;;;;;;;;;;;37.70;25.53;99237.72;5053186;28;1492;-73
2023/07/30 12:22:15;;;;;;;;;;;;;;;37.82;26.22;99234.25;5071386;28;928;-70
2023/07/30 12:24:42;;;;;;;;;;;;;;;37.75;25.39;99225.16;5071367;28;838;-70
2023/07/30 12:27:09;;;;;;;;;;;;;;;37.35;26.00;99228.63;5071259;28;1886;-72
2023/07/30 12:29:35;;;;;;;;;;;;;;;37.51;26.35;99220.44;5071265;28;803;-72
2023/07/30 12:35:05;;;;;;;;;;;;;;;38.18;25.57;99221.75;5074814;28;679;-73
2023/07/30 12:40:34;;;;;;;;;;;;;;;38.20;25.73;99233.44;5074794;28;631;-72
2023/07/30 12:46:04;;;;;;;;;;;;;;;38.00;25.40;99224.03;5074315;28;1964;-72
2023/07/30 12:48:30;;;;;;;;;;;;;;;37.73;25.77;99227.13;5074470;28;1406;-71
2023/07/30 12:50:57;;;;;;;;;;;;;;;37.58;26.04;99216.69;5074530;28;849;-70
2023/07/30 12:53:26;;;;;;;;;;;;;;;37.36;26.95;99224.38;5074517;28;823;-74
2023/07/30 12:55:53;;;;;;;;;;;;;;;37.82;26.43;99219.84;5074586;28;877;-72
2023/07/30 13:01:23;;;;;;;;;;;;;;;37.21;26.88;99213.16;5074296;28;977;-72
2023/07/30 13:10:04;;;;;;;;;;;;;;;37.76;26.59;99223.03;5062193;28;615;-70
2023/07/30 13:12:31;;;;;;;;;;;;;;;37.85;26.21;99221.50;5054064;28;881;-72
2023/07/30 13:14:58;;;;;;;;;;;;;;;37.89;25.96;99221.78;5053899;28;876;-71
2023/07/30 13:17:25;;;;;;;;;;;;;;;37.60;26.71;99219.72;5052696;28;1207;-72
2023/07/30 13:19:52;;;;;;;;;;;;;;;37.21;27.00;99218.91;5054332;28;865;-72
2023/07/30 13:22:18;;;;;;;;;;;;;;;37.07;26.60;99213.56;5053935;28;826;-72
2023/07/30 13:24:45;;;;;;;;;;;;;;;37.21;26.20;99213.16;5035882;28;841;-73
2023/07/30 13:27:12;;;;;;;;;;;;;;;37.38;26.14;99215.88;5053930;28;1902;-72
2023/07/30 13:29:38;;;;;;;;;;;;;;;37.16;26.36;99212.09;5053714;28;810;-75
2023/07/30 13:32:05;;;;;;;;;;;;;;;36.92;26.80;99216.72;5053641;28;841;-70
2023/07/30 13:34:32;;;;;;;;;;;;;;;36.87;27.12;99209.91;5053713;28;845;-71
2023/07/30 13:36:59;;;;;;;;;;;;;;;36.96;26.79;99211.28;5053436;28;833;-70
2023/07/30 13:39:27;;;;;;;;;;;;;;;36.59;27.50;99212.06;5053697;28;874;-72
2023/07/30 13:41:53;;;;;;;;;;;;;;;36.14;27.30;99216.38;5053910;28;893;-72
2023/07/30 13:44:20;;;;;;;;;;;;;;;35.99;27.72;99202.94;5053221;28;817;-71
2023/07/30 13:46:47;;;;;;;;;;;;;;;35.99;27.74;99202.94;5053390;28;1961;-71
2023/07/30 13:49:14;;;;;;;;;;;;;;;36.13;27.52;99209.88;5053205;28;1289;-75
2023/07/30 13:51:41;;;;;;;;;;;;;;;36.27;27.51;99200.84;5053364;28;869;-74
2023/07/30 13:54:08;;;;;;;;;;;;;;;36.72;26.74;99195.75;5053530;28;798;-69
2023/07/30 13:56:35;;;;;;;;;;;;;;;36.53;27.03;99190.66;5053110;28;847;-74
2023/07/30 13:59:02;;;;;;;;;;;;;;;36.64;25.95;99195.09;5053170;28;802;-74
2023/07/30 14:01:29;;;;;;;;;;;;;;;36.61;26.37;99184.78;5053469;28;802;-76
2023/07/30 14:03:56;;;;;;;;;;;;;;;36.69;25.57;99186.19;5052967;28;988;-73
2023/07/30 14:06:23;;;;;;;;;;;;;;;36.56;25.85;99193.09;5053212;28;1973;-73
2023/07/30 14:08:50;;;;;;;;;;;;;;;36.55;25.57;99190.81;5052923;28;802;-73
2023/07/30 14:11:17;;;;;;;;;;;;;;;36.66;25.77;99183.75;5053243;28;870;-71
2023/07/30 14:13:44;;;;;;;;;;;;;;;36.22;26.27;99190.41;5051511;28;1293;-71
2023/07/30 14:16:11;;;;;;;;;;;;;;;35.83;27.01;99193.00;5052718;28;879;-75
2023/07/30 14:18:39;;;;;;;;;;;;;;;35.56;27.51;99194.47;5052791;28;841;-75
2023/07/30 14:21:06;;;;;;;;;;;;;;;35.76;27.35;99198.28;5052559;28;901;-71
2023/07/30 14:23:33;;;;;;;;;;;;;;;35.50;27.75;99196.09;5052670;28;818;-74
2023/07/30 14:25:58;;;;;;;;;;;;;;;35.20;28.15;99185.72;5052928;28;1889;-72
2023/07/30 14:28:25;;;;;;;;;;;;;;;34.83;28.25;99176.88;5052519;28;848;-71
2023/07/30 14:30:52;;;;;;;;;;;;;;;34.43;28.94;99186.34;5052626;28;807;-75
2023/07/30 14:33:19;;;;;;;;;;;;;;;34.09;29.43;99182.72;5052441;28;816;-73
2023/07/30 14:35:47;;;;;;;;;;;;;;;33.65;30.38;99190.97;5034630;28;1240;-70
2023/07/30 14:38:13;;;;;;;;;;;;;;;33.47;30.72;99187.97;5052716;28;865;-71
2023/07/30 14:40:39;;;;;;;;;;;;;;;33.37;31.49;99192.78;5052445;28;878;-73
2023/07/30 14:43:07;;;;;;;;;;;;;;;33.44;30.94;99183.41;5052213;28;824;-72
2023/07/30 14:45:33;;;;;;;;;;;;;;;33.76;30.42;99179.88;5052132;28;1894;-74
2023/07/30 14:48:00;;;;;;;;;;;;;;;34.02;30.08;99174.19;5051857;28;1372;-73
2023/07/30 14:50:28;;;;;;;;;;;;;;;34.12;29.64;99170.13;5052316;28;840;-72
2023/07/30 14:52:55;;;;;;;;;;;;;;;34.08;29.22;99172.63;5052146;28;874;-72
2023/07/30 14:55:22;;;;;;;;;;;;;;;34.05;29.20;99179.50;5051590;28;802;-73
2023/07/30 14:57:49;;;;;;;;;;;;;;;34.27;29.46;99174.22;5034158;28;1306;-71
2023/07/30 15:00:16;;;;;;;;;;;;;;;34.67;29.00;99170.50;5050828;28;1453;-71
2023/07/30 15:02:44;;;;;;;;;;;;;;;34.89;28.25;99180.25;5052210;28;716;-73
2023/07/30 15:05:10;;;;;;;;;;;;;;;34.74;28.28;99170.44;5052039;28;877;-72
2023/07/30 15:07:36;;;;;;;;;;;;;;;34.64;28.09;99174.56;5051752;28;1902;-72
2023/07/30 15:10:04;;;;;;;;;;;;;;;34.51;28.24;99175.59;5052102;28;819;-73
2023/07/30 15:12:30;;;;;;;;;;;;;;;34.56;28.49;99172.47;5051922;28;856;-72
2023/07/30 15:14:57;;;;;;;;;;;;;;;34.61;28.13;99155.59;5051795;28;846;-74
2023/07/30 15:17:24;;;;;;;;;;;;;;;34.25;28.83;99171.97;5052141;28;850;-73
2023/07/30 15:19:52;;;;;;;;;;;;;;;34.11;29.31;99167.81;5051740;28;798;-72
2023/07/30 15:22:19;;;;;;;;;;;;;;;34.15;29.30;99171.06;5051729;28;873;-72
2023/07/30 15:24:45;;;;;;;;;;;;;;;34.26;28.83;99170.59;5051971;28;863;-73
2023/07/30 15:27:11;;;;;;;;;;;;;;;33.96;29.24;99175.16;5051886;28;1881;-74
2023/07/30 15:29:38;;;;;;;;;;;;;;;34.02;29.66;99171.31;5051759;28;974;-74
2023/07/30 15:32:04;;;;;;;;;;;;;;;34.16;29.74;99169.72;5051766;28;937;-72
2023/07/30 15:34:31;;;;;;;;;;;;;;;34.74;28.65;99175.44;5051686;28;814;-72
2023/07/30 15:37:00;;;;;;;;;;;;;;;34.67;29.04;99164.75;5050393;28;1266;-70
2023/07/30 15:39:27;;;;;;;;;;;;;;;33.51;30.18;99174.03;5051672;28;897;-74
2023/07/30 15:41:54;;;;;;;;;;;;;;;32.62;31.19;99172.28;5051858;28;842;-72
2023/07/30 15:44:20;;;;;;;;;;;;;;;31.81;32.75;99186.78;5051662;28;834;-72
2023/07/30 15:46:48;;;;;;;;;;;;;;;31.11;34.02;99179.97;5051716;28;1926;-73
2023/07/30 15:49:15;;;;;;;;;;;;;;;30.44;35.58;99181.69;5051205;28;1400;-74
2023/07/30 15:51:42;;;;;;;;;;;;;;;29.99;36.75;99180.66;5051607;28;854;-73
2023/07/30 15:54:09;;;;;;;;;;;;;;;29.63;37.53;99175.47;5033725;28;1129;-71
2023/07/30 15:56:36;;;;;;;;;;;;;;;29.29;38.18;99181.13;5051623;28;841;-72
2023/07/30 15:59:03;;;;;;;;;;;;;;;28.97;39.43;99179.13;5051877;28;830;-70
2023/07/30 16:01:30;;;;;;;;;;;;;;;28.68;40.19;99181.72;5051432;28;818;-73
2023/07/30 16:03:57;;;;;;;;;;;;;;;28.59;40.41;99179.31;5051371;28;862;-72
2023/07/30 16:06:24;;;;;;;;;;;;;;;28.56;40.45;99183.22;5053673;28;1965;-72
2023/07/30 16:08:51;;;;;;;;;;;;;;;28.40;40.87;99184.22;5055642;28;806;-72
2023/07/30 16:11:18;;;;;;;;;;;;;;;28.14;41.94;99180.00;5053827;28;933;-70
2023/07/30 16:13:45;;;;;;;;;;;;;;;27.85;43.05;99184.53;5055237;28;850;-71